Canova, South Dakota
Current Conditions -  °F | °C
As of 8:35 AM on Friday 28 Nov 2014 (Local Time) from KMDS Reporting Station
Overcast Overcast  
Wind Chill:   Ceiling: 11000
Heat Index: 18°   Visibility: 10mi
Dew Point: 18°   Wind: 9mph
Humidity: 100%   Direction: 110°ESE
Pressure: 29.79"   Gusts: NA
Location:  43.88°N, 97.5°W
Report Text: KMDS 281435Z AUTO 11008KT 10SM OVC110 M08/M08 A2979 RMK AO2
Loading
Personal Weather Stations






























Interactive Weather Map New forecast layout! Learn more

10-Day Weather Forecast

Advertisements
Track Severe Weather on mobile